Atlantic - Newfoundland: Past 24 Hour Conditions

 

J.A. Douglas McCurdy Sydney Airport

08:00 AM ADT 22 August 2014
This table is a summary of hourly weather conditions for the past 24 hours.
Date / Time
(ADT)
Wind(knots) Conditions Visibility(km) Pressure(kPa) Air tempC) Relative humidity(%) Dew pointC) Humidex
22 August 2014
8:00 NE 5 Cloudy 24 101.9 18 83 15 *
7:00 NNE 10 Mostly Cloudy 24 101.8 17 85 15 *
6:00 NNE 9 Mostly Cloudy 16 101.8 17 87 15 *
5:00 NNE 11 gust 16 Mostly Cloudy 16 101.8 17 86 14 *
4:00 NNE 15 Light Drizzle 16 101.8 17 84 14 *
3:00 N 12 gust 18 Light Drizzle 16 101.8 17 84 14 *
2:00 NNE 16 Mostly Cloudy 16 101.8 17 84 14 *
1:00 N 11 gust 16 Light Rain 16 101.8 17 85 14 *
0:00 N 10 gust 16 Light Rain 16 101.8 17 84 14 *
21 August 2014
23:00 N 14 gust 20 Mostly Cloudy 24 101.8 17 84 14 *
22:00 N 12 gust 17 Mostly Cloudy 24 101.9 17 81 14 *
21:00 N 12 gust 20 Light Rainshower 16 101.9 17 87 15 *
20:00 N 12 Mostly Cloudy 24 101.8 17 88 15 *
19:00 N 15 gust 21 Partly Cloudy 24 101.9 17 84 15 *
18:00 N 15 gust 21 Mostly Cloudy 24 101.8 18 81 15 *
17:00 N 17 gust 25 Partly Cloudy 24 101.8 20 75 15 *
16:00 N 12 gust 18 Partly Cloudy 24 101.8 20 73 15 *
15:00 N 14 gust 21 Mainly Sunny 24 101.8 21 71 16 25
14:00 NNW 17 gust 22 Partly Cloudy 24 101.8 20 73 15 *
13:00 N 15 gust 21 Mainly Sunny 24 101.8 21 65 15 25
12:00 N 17 Partly Cloudy 24 101.8 21 68 15 25
11:00 NNW 12 gust 20 Partly Cloudy 24 101.8 21 76 16 25
10:00 NNW 16 gust 22 Partly Cloudy 24 101.8 20 75 15 *
9:00 NNW 14 Partly Cloudy 24 101.7 19 78 15 *
8:00 NW 6 Partly Cloudy 24 101.7 18 85 15 *
 
Map of Atlantic - Newfoundland marine weather areas Southwestern Grand Banks - 44138 Banquereau - 44139 Tail of the Bank - 44140 Nickerson Bank - 44251 Northeast Burgeo Bank - 44255 Blanc-Sablon Airport Cap Whittle Chevery Natashquan Airport Heath Point Miscou Island Grand Étang Ingonish Beach North Mountain St.Paul Island J.A. Douglas McCurdy Sydney Airport Charlottetown Airport East Point North Cape Argentia Bonavista Burgeo Cape Race Corner Brook Daniel's Harbour Englee Ferolle Point La Scie Port aux Basques Rocky Harbour Sagona Island St. Anthony Airport St. John's Int'l Airport St. Lawrence Stephenville Airport Twillingate Winterland Wreckhouse Cartwright Airport Mary's Harbour Grates Cove Pool's Island Marticot Island Long Pond Îles de la Madeleine Airport
Legend: buoyBuoy land stationLand Station